Time;durP1;ratioP1;P1;durP2;ratioP2;P2;SDS_P1;SDS_P2;PMS_P1;PMS_P2;Temp;Humidity;BMP_temperature;BMP_pressure;BME280_temperature;BME280_humidity;BME280_pressure;Samples;Min_cycle;Max_cycle;Signal;HPM_P1;HPM_P2
2021/05/23 00:02:13;;;;;;;;;;;;;;;15.45;71.34;99025.66;1725878;83;20230;-89
2021/05/23 00:04:39;;;;;;;;;;;;;;;15.41;70.62;99023.27;1736641;82;20194;-90
2021/05/23 00:07:08;;;;;;;;;;;;;;;15.37;71.75;99025.17;1728654;83;20202;-88
2021/05/23 00:09:35;;;;;;;;;;;;;;;15.34;71.74;99018.78;1737948;83;20158;-87
2021/05/23 00:12:01;;;;;;;;;;;;;;;15.32;72.31;99021.94;1742285;83;20194;-86
2021/05/23 00:14:27;;;;;;;;;;;;;;;15.26;72.17;99016.95;1742167;83;20142;-87
2021/05/23 00:16:53;;;;;;;;;;;;;;;15.23;72.91;99019.72;1732257;81;20179;-87
2021/05/23 00:19:19;;;;;;;;;;;;;;;15.20;71.00;99014.61;1713018;84;20291;-87
2021/05/23 00:21:45;;;;;;;;;;;;;;;15.15;70.70;99022.68;1711802;81;20158;-87
2021/05/23 00:24:12;;;;;;;;;;;;;;;15.14;71.47;99024.05;1737899;83;20171;-86
2021/05/23 00:26:38;;;;;;;;;;;;;;;15.12;72.07;99029.38;1738021;82;20163;-87
2021/05/23 00:29:05;;;;;;;;;;;;;;;15.11;70.46;99031.59;1737762;81;20108;-87
2021/05/23 00:31:32;;;;;;;;;;;;;;;15.08;70.87;99031.72;1730886;82;20145;-87
2021/05/23 00:33:59;;;;;;;;;;;;;;;15.04;71.45;99029.72;1708749;84;20194;-86
2021/05/23 00:36:25;;;;;;;;;;;;;;;14.99;68.60;99023.83;1715649;81;20168;-87
2021/05/23 00:38:52;;;;;;;;;;;;;;;15.00;72.99;99035.14;1737859;83;20182;-87
2021/05/23 00:41:18;;;;;;;;;;;;;;;14.98;70.65;99047.01;1737922;83;20172;-87
2021/05/23 00:43:45;;;;;;;;;;;;;;;14.97;69.92;99043.98;1709056;82;20150;-87
2021/05/23 00:46:12;;;;;;;;;;;;;;;14.97;72.08;99043.14;1708648;84;20126;-87
2021/05/23 00:48:38;;;;;;;;;;;;;;;14.96;71.84;99047.97;1708806;84;20110;-87
2021/05/23 00:51:05;;;;;;;;;;;;;;;14.95;74.16;99049.75;1715224;82;20160;-86
2021/05/23 00:53:32;;;;;;;;;;;;;;;14.98;72.81;99055.30;1738252;81;20208;-88
2021/05/23 00:55:58;;;;;;;;;;;;;;;15.00;71.81;99062.19;1737871;82;20156;-87
2021/05/23 00:58:25;;;;;;;;;;;;;;;15.02;69.35;99053.81;1738182;82;20120;-87
2021/05/23 01:00:58;;;;;;;;;;;;;;;15.02;71.88;99057.73;1738231;82;20143;-87
2021/05/23 01:03:33;;;;;;;;;;;;;;;15.04;71.90;99058.95;1720312;82;20115;-88
2021/05/23 01:06:08;;;;;;;;;;;;;;;15.05;73.73;99056.27;1710826;82;20154;-87
2021/05/23 01:08:36;;;;;;;;;;;;;;;15.09;72.15;99056.53;1738233;81;20151;-84
2021/05/23 01:11:08;;;;;;;;;;;;;;;15.08;72.36;99048.30;1689266;81;20202;-86
2021/05/23 01:13:55;;;;;;;;;;;;;;;15.09;74.32;99039.98;1700644;80;20140;-87
2021/05/23 01:16:33;;;;;;;;;;;;;;;15.11;72.14;99039.45;1775393;81;20202;-82
2021/05/23 01:19:29;;;;;;;;;;;;;;;15.09;75.06;99040.82;1745968;81;20175;-84
2021/05/23 01:22:13;;;;;;;;;;;;;;;15.10;73.25;99039.92;1758201;78;20192;-90
2021/05/23 01:24:42;;;;;;;;;;;;;;;15.11;73.18;99035.52;1716301;84;20232;-87
2021/05/23 01:27:12;;;;;;;;;;;;;;;15.10;74.43;99033.37;1716471;84;20153;-86
2021/05/23 01:29:40;;;;;;;;;;;;;;;15.10;73.72;99035.15;1716364;81;20141;-87
2021/05/23 01:32:07;;;;;;;;;;;;;;;15.07;74.60;99038.73;1716604;80;20185;-87
2021/05/23 01:34:34;;;;;;;;;;;;;;;15.06;74.57;99031.81;1675521;84;20213;-87
2021/05/23 01:37:04;;;;;;;;;;;;;;;15.06;74.97;99040.09;1698506;84;20180;-87
2021/05/23 01:39:30;;;;;;;;;;;;;;;15.04;75.78;99031.47;1716215;80;20125;-87
2021/05/23 01:41:57;;;;;;;;;;;;;;;14.98;76.61;99035.66;1716718;83;20097;-87
2021/05/23 01:44:24;;;;;;;;;;;;;;;14.95;72.06;99036.66;1716862;81;20180;-87
2021/05/23 01:46:51;;;;;;;;;;;;;;;14.87;76.40;99040.91;1716365;80;20129;-86
2021/05/23 01:49:18;;;;;;;;;;;;;;;14.78;76.07;99043.95;1716396;83;20163;-87
2021/05/23 01:51:44;;;;;;;;;;;;;;;14.70;76.43;99039.05;1716438;84;20148;-88
2021/05/23 01:54:10;;;;;;;;;;;;;;;14.63;75.63;99036.28;1716589;84;20114;-86
2021/05/23 01:56:38;;;;;;;;;;;;;;;14.56;75.91;99047.91;1716546;84;20117;-87
2021/05/23 01:59:04;;;;;;;;;;;;;;;14.49;75.68;99047.30;1716502;84;20118;-87
2021/05/23 02:01:31;;;;;;;;;;;;;;;14.43;76.96;99046.25;1716363;83;20161;-87
2021/05/23 02:04:00;;;;;;;;;;;;;;;14.39;75.91;99048.59;1716761;82;20146;-87
2021/05/23 02:06:26;;;;;;;;;;;;;;;14.35;74.77;99058.80;1716579;82;20153;-87
2021/05/23 02:08:53;;;;;;;;;;;;;;;14.30;79.78;99060.73;1721197;82;20162;-90
2021/05/23 02:11:19;;;;;;;;;;;;;;;14.30;76.68;99056.37;1724766;82;20174;-89
2021/05/23 02:13:49;;;;;;;;;;;;;;;14.27;79.78;99046.49;1713110;83;20202;-91
2021/05/23 02:16:15;;;;;;;;;;;;;;;14.28;75.09;99042.95;1762039;79;20200;-87
2021/05/23 02:18:42;;;;;;;;;;;;;;;14.25;78.47;99049.16;1764146;80;20179;-88
2021/05/23 02:21:09;;;;;;;;;;;;;;;14.23;79.44;99044.92;1735025;80;20812;-90
2021/05/23 02:23:35;;;;;;;;;;;;;;;14.26;78.99;99048.70;1727336;81;20160;-90
2021/05/23 02:26:01;;;;;;;;;;;;;;;14.26;77.74;99057.85;1733489;82;20237;-88
2021/05/23 02:28:27;;;;;;;;;;;;;;;14.26;76.31;99069.62;1723863;82;20202;-86
2021/05/23 02:30:56;;;;;;;;;;;;;;;14.23;77.84;99052.30;1727155;82;20634;-87
2021/05/23 02:33:24;;;;;;;;;;;;;;;14.16;80.83;99061.76;1726041;83;20192;-85
2021/05/23 02:35:55;;;;;;;;;;;;;;;14.10;81.14;99059.77;1735984;82;20206;-86
2021/05/23 02:38:22;;;;;;;;;;;;;;;14.08;76.71;99061.59;1740396;82;20144;-86
2021/05/23 02:40:49;;;;;;;;;;;;;;;14.02;81.17;99063.15;1737616;83;20170;-86
2021/05/23 02:43:17;;;;;;;;;;;;;;;13.99;79.20;99068.52;1744564;82;20165;-85
2021/05/23 02:45:44;;;;;;;;;;;;;;;13.91;81.07;99070.58;1735038;82;20203;-84
2021/05/23 02:48:11;;;;;;;;;;;;;;;13.87;75.27;99076.84;1741332;82;20158;-85
2021/05/23 02:50:40;;;;;;;;;;;;;;;13.81;78.31;99074.47;1715281;83;20178;-86
2021/05/23 02:53:08;;;;;;;;;;;;;;;13.77;78.94;99075.03;1715255;82;20223;-85
2021/05/23 02:55:35;;;;;;;;;;;;;;;13.73;81.06;99076.06;1726604;82;20263;-85
2021/05/23 02:58:03;;;;;;;;;;;;;;;13.69;81.65;99071.87;1736248;82;20125;-85
2021/05/23 03:00:30;;;;;;;;;;;;;;;13.70;79.23;99081.39;1715359;84;20168;-85
2021/05/23 03:02:56;;;;;;;;;;;;;;;13.70;82.17;99082.70;1730656;83;20187;-87
2021/05/23 03:05:23;;;;;;;;;;;;;;;13.74;81.44;99080.36;1731941;83;20128;-86
2021/05/23 03:07:52;;;;;;;;;;;;;;;13.77;80.65;99080.69;1743947;79;20178;-89
2021/05/23 03:10:25;;;;;;;;;;;;;;;13.81;79.29;99075.77;1745606;80;20228;-89
2021/05/23 03:12:53;;;;;;;;;;;;;;;13.83;81.09;99088.33;1732717;81;20152;-90
2021/05/23 03:15:21;;;;;;;;;;;;;;;13.88;78.73;99098.12;1735028;83;20195;-91
2021/05/23 03:17:47;;;;;;;;;;;;;;;13.92;78.53;99087.95;1774545;79;20159;-89
2021/05/23 03:20:15;;;;;;;;;;;;;;;13.91;80.19;99079.73;1777526;81;20217;-88
2021/05/23 03:22:42;;;;;;;;;;;;;;;13.90;80.48;99081.47;1781080;78;20160;-87
2021/05/23 03:25:12;;;;;;;;;;;;;;;13.87;81.35;99075.08;1770641;77;20164;-87
2021/05/23 03:27:39;;;;;;;;;;;;;;;13.93;81.07;99079.22;1729667;79;20177;-86
2021/05/23 03:30:11;;;;;;;;;;;;;;;13.93;80.54;99081.83;1697853;84;20201;-86
2021/05/23 03:32:37;;;;;;;;;;;;;;;13.91;80.66;99080.57;1698180;81;20201;-85
2021/05/23 03:35:05;;;;;;;;;;;;;;;13.93;80.68;99086.59;1693997;85;20217;-85
2021/05/23 03:37:31;;;;;;;;;;;;;;;13.94;79.73;99095.27;1703738;84;20193;-86
2021/05/23 03:39:57;;;;;;;;;;;;;;;13.96;78.85;99110.91;1711478;83;20152;-87
2021/05/23 03:42:24;;;;;;;;;;;;;;;13.95;78.54;99114.41;1711232;84;20128;-88
2021/05/23 03:44:50;;;;;;;;;;;;;;;13.96;79.02;99123.51;1711493;83;20148;-87
2021/05/23 03:47:16;;;;;;;;;;;;;;;13.97;78.00;99115.23;1700688;83;20188;-87
2021/05/23 03:49:42;;;;;;;;;;;;;;;13.94;79.85;99112.27;1697595;85;20108;-87
2021/05/23 03:52:10;;;;;;;;;;;;;;;13.85;81.73;99108.72;1707288;83;20270;-86
2021/05/23 03:54:36;;;;;;;;;;;;;;;13.88;80.61;99104.66;1711650;84;20141;-87
2021/05/23 03:57:04;;;;;;;;;;;;;;;13.90;79.86;99103.68;1707409;83;20179;-87
2021/05/23 03:59:31;;;;;;;;;;;;;;;13.87;79.90;99097.28;1705933;84;20126;-87
2021/05/23 04:01:57;;;;;;;;;;;;;;;13.90;79.63;99101.07;1704686;83;20103;-86
2021/05/23 04:04:24;;;;;;;;;;;;;;;13.93;77.90;99110.11;1697611;83;20613;-87
2021/05/23 04:06:50;;;;;;;;;;;;;;;13.95;80.21;99112.67;1697676;83;20178;-86
2021/05/23 04:09:20;;;;;;;;;;;;;;;14.03;78.35;99112.38;1710185;83;20150;-86
2021/05/23 04:11:50;;;;;;;;;;;;;;;14.02;80.02;99115.42;1711686;83;20208;-87
2021/05/23 04:14:15;;;;;;;;;;;;;;;14.09;79.35;99110.83;1711605;83;20149;-86
2021/05/23 04:16:41;;;;;;;;;;;;;;;14.13;80.71;99108.49;1701470;84;20132;-87
2021/05/23 04:19:09;;;;;;;;;;;;;;;14.20;80.09;99113.85;1711615;84;20160;-87
2021/05/23 04:21:36;;;;;;;;;;;;;;;14.25;79.67;99105.38;1711418;84;20113;-87
2021/05/23 04:24:03;;;;;;;;;;;;;;;14.29;80.20;99103.50;1711245;84;20204;-87
2021/05/23 04:26:29;;;;;;;;;;;;;;;14.40;78.11;99099.13;1711296;83;20235;-86
2021/05/23 04:28:55;;;;;;;;;;;;;;;14.43;78.37;99098.56;1711613;83;20168;-86
2021/05/23 04:31:22;;;;;;;;;;;;;;;14.48;77.75;99099.23;1712356;84;20221;-86
2021/05/23 04:33:48;;;;;;;;;;;;;;;14.55;78.79;99105.05;1700095;83;20151;-88
2021/05/23 04:36:14;;;;;;;;;;;;;;;14.61;78.48;99114.45;1697641;84;20219;-87
2021/05/23 04:38:40;;;;;;;;;;;;;;;14.69;78.41;99118.91;1699417;82;20174;-87
2021/05/23 04:41:07;;;;;;;;;;;;;;;14.76;77.67;99125.57;1699122;84;20194;-86
2021/05/23 04:43:33;;;;;;;;;;;;;;;14.88;77.49;99124.20;1705963;83;20256;-87
2021/05/23 04:45:59;;;;;;;;;;;;;;;14.96;78.09;99121.27;1714509;81;20229;-88
2021/05/23 04:48:25;;;;;;;;;;;;;;;15.05;76.87;99118.27;1757863;81;20178;-88
2021/05/23 04:50:51;;;;;;;;;;;;;;;15.15;77.05;99112.18;1779728;80;20187;-90
2021/05/23 04:53:17;;;;;;;;;;;;;;;15.24;77.53;99099.97;1769316;80;20219;-90
2021/05/23 04:55:43;;;;;;;;;;;;;;;15.35;76.94;99096.42;1770662;81;20207;-87
2021/05/23 04:58:10;;;;;;;;;;;;;;;15.48;76.72;99107.23;1779840;80;20237;-89
2021/05/23 05:00:36;;;;;;;;;;;;;;;15.56;76.54;99113.41;1771053;80;20216;-88
2021/05/23 05:03:02;;;;;;;;;;;;;;;15.59;76.16;99121.98;1775883;80;20237;-87
2021/05/23 05:05:29;;;;;;;;;;;;;;;15.61;75.85;99125.37;1781017;80;20195;-87
2021/05/23 05:07:55;;;;;;;;;;;;;;;15.66;75.28;99130.44;1764345;80;20183;-88
2021/05/23 05:10:21;;;;;;;;;;;;;;;15.70;74.79;99135.45;1775258;81;20155;-90
2021/05/23 05:12:48;;;;;;;;;;;;;;;15.71;75.75;99131.91;1764377;80;20200;-90
2021/05/23 05:15:14;;;;;;;;;;;;;;;15.75;75.11;99124.78;1766602;81;20195;-89
2021/05/23 05:17:40;;;;;;;;;;;;;;;15.74;75.61;99121.79;1768592;80;20192;-90
2021/05/23 05:20:08;;;;;;;;;;;;;;;15.82;74.57;99124.06;1752461;81;20130;-83
2021/05/23 05:22:35;;;;;;;;;;;;;;;15.89;74.89;99126.30;1774822;81;20147;-84
2021/05/23 05:25:04;;;;;;;;;;;;;;;15.93;74.92;99128.80;1755067;79;20162;-91
2021/05/23 05:27:31;;;;;;;;;;;;;;;16.04;74.65;99125.23;1731268;82;20217;-79
2021/05/23 05:29:57;;;;;;;;;;;;;;;16.14;74.72;99130.89;1760343;81;20187;-79
2021/05/23 05:32:23;;;;;;;;;;;;;;;16.24;74.25;99132.99;1736384;81;20226;-87
2021/05/23 05:34:49;;;;;;;;;;;;;;;16.33;73.96;99128.22;1751315;81;20176;-89
2021/05/23 05:37:16;;;;;;;;;;;;;;;16.46;73.50;99128.87;1728472;81;20183;-91
2021/05/23 05:39:42;;;;;;;;;;;;;;;16.53;73.53;99124.63;1729656;82;20187;-88
2021/05/23 05:42:09;;;;;;;;;;;;;;;16.60;73.38;99120.79;1732191;83;20190;-87
2021/05/23 05:44:35;;;;;;;;;;;;;;;16.68;73.40;99122.57;1736586;82;20119;-86
2021/05/23 05:47:01;;;;;;;;;;;;;;;16.77;73.00;99121.25;1744767;82;20178;-86
2021/05/23 05:49:28;;;;;;;;;;;;;;;16.88;73.01;99126.38;1744794;82;20161;-86
2021/05/23 05:51:54;;;;;;;;;;;;;;;17.06;72.69;99115.88;1742085;82;20146;-87
2021/05/23 05:54:20;;;;;;;;;;;;;;;17.13;70.94;99119.89;1718664;82;20211;-87
2021/05/23 05:56:46;;;;;;;;;;;;;;;17.28;70.68;99117.77;1719169;82;20260;-87
2021/05/23 05:59:13;;;;;;;;;;;;;;;17.46;70.73;99122.98;1721475;82;20165;-86
2021/05/23 06:01:40;;;;;;;;;;;;;;;17.61;70.20;99119.55;1722663;82;20218;-87
2021/05/23 06:04:06;;;;;;;;;;;;;;;17.78;70.36;99115.16;1744866;82;20178;-85
2021/05/23 06:06:32;;;;;;;;;;;;;;;17.94;70.34;99116.52;1744411;82;20174;-87
2021/05/23 06:08:59;;;;;;;;;;;;;;;18.06;68.63;99113.20;1744807;82;20290;-86
2021/05/23 06:11:25;;;;;;;;;;;;;;;18.18;67.51;99124.34;1744739;82;20154;-86
2021/05/23 06:13:51;;;;;;;;;;;;;;;18.24;66.24;99117.90;1734210;82;20233;-87
2021/05/23 06:16:17;;;;;;;;;;;;;;;18.38;66.74;99103.52;1744332;82;20174;-86
2021/05/23 06:18:45;;;;;;;;;;;;;;;18.50;65.94;99092.72;1746640;82;20158;-87
2021/05/23 06:21:12;;;;;;;;;;;;;;;18.63;65.21;99087.14;1747373;82;20197;-87
2021/05/23 06:23:38;;;;;;;;;;;;;;;18.77;65.92;99084.17;1745241;82;20181;-86
2021/05/23 06:26:04;;;;;;;;;;;;;;;18.88;65.90;99079.16;1737984;81;20150;-86
2021/05/23 06:28:30;;;;;;;;;;;;;;;18.97;64.99;99085.66;1735990;83;20143;-86
2021/05/23 06:30:56;;;;;;;;;;;;;;;18.97;64.21;99104.09;1724946;83;20201;-86
2021/05/23 06:33:22;;;;;;;;;;;;;;;18.94;64.57;99117.43;1713014;84;20180;-85
2021/05/23 06:35:49;;;;;;;;;;;;;;;18.87;64.35;99112.53;1708268;84;20204;-87
2021/05/23 06:38:15;;;;;;;;;;;;;;;18.90;65.65;99114.60;1708036;84;20208;-86
2021/05/23 06:40:41;;;;;;;;;;;;;;;18.90;65.25;99119.42;1712345;83;20151;-86
2021/05/23 06:43:07;;;;;;;;;;;;;;;18.93;64.49;99119.70;1721558;83;20197;-87
2021/05/23 06:45:33;;;;;;;;;;;;;;;18.87;62.76;99117.80;1731868;83;20190;-87
2021/05/23 06:47:59;;;;;;;;;;;;;;;18.92;62.79;99121.95;1707347;83;20192;-86
2021/05/23 06:50:26;;;;;;;;;;;;;;;19.02;63.08;99123.96;1727284;83;20497;-86
2021/05/23 06:52:52;;;;;;;;;;;;;;;19.04;62.44;99127.35;1736880;83;20163;-87
2021/05/23 06:55:18;;;;;;;;;;;;;;;19.19;63.56;99121.62;1720065;83;20276;-87
2021/05/23 06:57:45;;;;;;;;;;;;;;;19.24;62.00;99116.09;1707669;84;20193;-87
2021/05/23 07:00:12;;;;;;;;;;;;;;;19.34;62.88;99100.09;1721632;83;20147;-87
2021/05/23 07:02:38;;;;;;;;;;;;;;;19.38;63.31;99102.91;1726458;83;20197;-87
2021/05/23 07:05:06;;;;;;;;;;;;;;;19.41;62.82;99100.55;1723631;83;20170;-86
2021/05/23 07:07:32;;;;;;;;;;;;;;;19.42;62.96;99090.40;1733239;83;20154;-86
2021/05/23 07:09:58;;;;;;;;;;;;;;;19.45;62.61;99091.51;1733021;83;20266;-85
2021/05/23 07:12:25;;;;;;;;;;;;;;;19.48;61.57;99092.17;1729011;83;20174;-87
2021/05/23 07:14:51;;;;;;;;;;;;;;;19.52;61.59;99084.06;1720110;82;20160;-85
2021/05/23 07:17:17;;;;;;;;;;;;;;;19.59;62.72;99076.16;1735263;83;20142;-87
2021/05/23 07:19:44;;;;;;;;;;;;;;;19.63;62.53;99077.17;1736923;83;20210;-86
2021/05/23 07:22:10;;;;;;;;;;;;;;;19.69;61.08;99071.98;1736775;81;20205;-88
2021/05/23 07:24:36;;;;;;;;;;;;;;;19.78;56.94;99075.41;1753612;80;20262;-87
2021/05/23 07:27:03;;;;;;;;;;;;;;;19.79;59.75;99074.92;1766496;81;20810;-85
2021/05/23 07:29:29;;;;;;;;;;;;;;;19.83;56.64;99073.78;1734199;82;20205;-87
2021/05/23 07:31:55;;;;;;;;;;;;;;;19.96;58.54;99075.19;1735169;81;20145;-86
2021/05/23 07:34:21;;;;;;;;;;;;;;;20.02;59.01;99080.91;1732179;81;20184;-82
2021/05/23 07:36:48;;;;;;;;;;;;;;;20.11;55.18;99072.02;1715473;82;20162;-87
2021/05/23 07:39:14;;;;;;;;;;;;;;;20.29;55.45;99072.61;1742708;80;20151;-86
2021/05/23 07:41:41;;;;;;;;;;;;;;;20.50;57.11;99082.25;1737930;81;20189;-87
2021/05/23 07:44:07;;;;;;;;;;;;;;;20.64;55.25;99083.52;1716331;83;20173;-86
2021/05/23 07:46:33;;;;;;;;;;;;;;;20.89;57.40;99077.89;1723980;83;20209;-87
2021/05/23 07:48:59;;;;;;;;;;;;;;;21.03;56.29;99077.83;1733403;81;20185;-87
2021/05/23 07:51:26;;;;;;;;;;;;;;;21.17;54.10;99073.75;1727110;83;20275;-87
2021/05/23 07:53:52;;;;;;;;;;;;;;;21.36;54.57;99073.78;1718389;83;20199;-87
2021/05/23 07:56:19;;;;;;;;;;;;;;;21.48;53.26;99075.59;1715972;83;20193;-87
2021/05/23 07:58:45;;;;;;;;;;;;;;;21.61;55.99;99071.63;1722719;83;20246;-86
2021/05/23 08:01:13;;;;;;;;;;;;;;;21.72;54.00;99065.55;1730598;81;20185;-86
2021/05/23 08:03:40;;;;;;;;;;;;;;;21.74;52.72;99071.58;1713918;83;20195;-86
2021/05/23 08:06:08;;;;;;;;;;;;;;;21.79;53.21;99070.78;1735587;82;20146;-87
2021/05/23 08:08:35;;;;;;;;;;;;;;;21.78;50.30;99066.43;1730864;82;20174;-87
2021/05/23 08:11:03;;;;;;;;;;;;;;;21.87;50.49;99065.78;1723471;83;20193;-86
2021/05/23 08:13:29;;;;;;;;;;;;;;;21.84;50.46;99061.56;1730007;81;20225;-86
2021/05/23 08:15:59;;;;;;;;;;;;;;;21.90;51.23;99061.57;1737320;83;20221;-87
2021/05/23 08:18:29;;;;;;;;;;;;;;;21.94;50.61;99061.71;1739810;83;20166;-86
2021/05/23 08:21:01;;;;;;;;;;;;;;;21.98;50.84;99054.40;1734215;82;20190;-87
2021/05/23 08:23:29;;;;;;;;;;;;;;;;;;1740907;82;20181;-86
2021/05/23 08:25:56;;;;;;;;;;;;;;;22.28;52.62;99055.78;1734642;81;20148;-85
2021/05/23 08:28:23;;;;;;;;;;;;;;;22.41;51.57;99052.11;1722323;83;20175;-86
2021/05/23 08:30:50;;;;;;;;;;;;;;;22.50;53.30;99061.19;1699561;85;20239;-87
2021/05/23 08:33:17;;;;;;;;;;;;;;;22.59;50.26;99063.13;1722691;83;20179;-87
2021/05/23 08:35:43;;;;;;;;;;;;;;;22.64;48.63;99062.77;1728215;83;20162;-86
2021/05/23 08:38:09;;;;;;;;;;;;;;;22.85;50.98;99056.34;1728466;83;20207;-86
2021/05/23 08:40:37;;;;;;;;;;;;;;;22.94;46.73;99049.02;1728476;83;20215;-86
2021/05/23 08:43:04;;;;;;;;;;;;;;;23.06;48.13;99047.72;1727268;82;20179;-86
2021/05/23 08:45:30;;;;;;;;;;;;;;;23.20;48.56;99052.81;1728281;83;20210;-87
2021/05/23 08:47:57;;;;;;;;;;;;;;;23.30;46.35;99043.17;1718971;83;20173;-86
2021/05/23 08:50:24;;;;;;;;;;;;;;;23.37;44.49;99041.70;1727674;83;20744;-86
2021/05/23 08:52:55;;;;;;;;;;;;;;;23.35;43.04;99042.30;1719425;83;20182;-86
2021/05/23 08:55:21;;;;;;;;;;;;;;;23.34;40.98;99043.78;1728259;83;20661;-86
2021/05/23 08:57:52;;;;;;;;;;;;;;;23.51;43.12;99039.28;1728366;83;20214;-86
2021/05/23 09:00:19;;;;;;;;;;;;;;;23.69;43.61;99030.81;1727634;83;20148;-85
2021/05/23 09:03:00;;;;;;;;;;;;;;;23.96;46.03;99034.42;1727642;83;20225;-86
2021/05/23 09:05:37;;;;;;;;;;;;;;;24.15;43.98;99027.97;1727631;83;20243;-86
2021/05/23 09:08:07;;;;;;;;;;;;;;;24.25;37.62;99027.19;1720902;83;20156;-86
2021/05/23 09:10:35;;;;;;;;;;;;;;;24.24;39.24;99021.53;1727916;83;20193;-87
2021/05/23 09:13:01;;;;;;;;;;;;;;;24.35;39.43;99019.67;1728043;83;20231;-86
2021/05/23 09:15:28;;;;;;;;;;;;;;;24.52;38.90;99016.94;1728435;83;20228;-86
2021/05/23 09:18:09;;;;;;;;;;;;;;;24.66;39.09;99010.95;1728382;83;20194;-86
2021/05/23 09:20:37;;;;;;;;;;;;;;;24.81;43.16;99007.00;1704535;83;20161;-87
2021/05/23 09:23:09;;;;;;;;;;;;;;;24.89;38.86;99006.31;1717591;83;20171;-87
2021/05/23 09:25:36;;;;;;;;;;;;;;;25.01;42.37;99003.95;1716756;82;20151;-87
2021/05/23 09:28:04;;;;;;;;;;;;;;;25.08;38.15;98999.77;1685803;85;20431;-87
2021/05/23 09:30:33;;;;;;;;;;;;;;;25.18;39.57;98993.16;1717748;82;20159;-87
2021/05/23 09:32:59;;;;;;;;;;;;;;;25.32;39.95;98982.67;1735299;83;20177;-86
2021/05/23 09:35:27;;;;;;;;;;;;;;;25.44;43.98;98983.41;1698974;83;20186;-85
2021/05/23 09:38:00;;;;;;;;;;;;;;;25.34;38.34;98984.21;1709324;84;20177;-84
2021/05/23 09:40:29;;;;;;;;;;;;;;;25.33;40.36;98979.05;1680931;85;20586;-85
2021/05/23 09:42:56;;;;;;;;;;;;;;;25.42;40.99;98972.06;1676097;85;20311;-84
2021/05/23 09:45:25;;;;;;;;;;;;;;;25.30;40.19;98980.14;1683191;85;20200;-87
2021/05/23 09:47:57;;;;;;;;;;;;;;;25.33;37.49;98976.39;1670229;85;20180;-87
2021/05/23 09:50:38;;;;;;;;;;;;;;;25.21;36.23;98978.27;1684515;85;20644;-86
2021/05/23 09:53:23;;;;;;;;;;;;;;;25.22;35.97;98984.46;1680614;85;20154;-87
2021/05/23 09:55:56;;;;;;;;;;;;;;;25.39;40.11;98983.33;1661753;86;20522;-86
2021/05/23 09:58:23;;;;;;;;;;;;;;;25.36;36.66;98974.27;1684587;85;20252;-87
2021/05/23 10:00:50;;;;;;;;;;;;;;;25.50;40.74;98971.72;1714302;84;20161;-87
2021/05/23 10:03:27;;;;;;;;;;;;;;;25.57;38.69;98959.55;1709009;84;20208;-87
2021/05/23 10:05:54;;;;;;;;;;;;;;;25.69;36.92;98955.45;1709945;84;20228;-87
2021/05/23 10:08:21;;;;;;;;;;;;;;;25.86;37.13;98958.73;1690496;85;20188;-87
2021/05/23 10:10:48;;;;;;;;;;;;;;;25.93;35.96;98955.91;1690182;85;20117;-87
2021/05/23 10:13:15;;;;;;;;;;;;;;;26.01;36.96;98955.72;1700005;84;20170;-87
2021/05/23 10:15:41;;;;;;;;;;;;;;;26.13;36.60;98947.42;1686022;85;20115;-87
2021/05/23 10:18:09;;;;;;;;;;;;;;;26.31;36.10;98951.54;1685684;85;20194;-87
2021/05/23 10:20:36;;;;;;;;;;;;;;;26.55;35.42;98950.23;1659486;87;20215;-87
2021/05/23 10:23:08;;;;;;;;;;;;;;;26.62;35.83;98945.19;1679380;84;20145;-88
2021/05/23 10:25:36;;;;;;;;;;;;;;;26.69;35.83;98937.80;1698997;83;20169;-87
2021/05/23 10:28:03;;;;;;;;;;;;;;;26.71;34.82;98930.50;1749454;82;20096;-87
2021/05/23 10:30:30;;;;;;;;;;;;;;;27.04;36.18;98930.95;1751569;82;20183;-85
2021/05/23 10:32:57;;;;;;;;;;;;;;;27.25;34.89;98925.87;1751005;81;20131;-87
2021/05/23 10:35:31;;;;;;;;;;;;;;;27.41;34.56;98919.88;1746187;82;20162;-86
2021/05/23 10:37:54;;;;;;;;;;;;;;;27.54;34.89;98915.85;1727396;82;20175;-87
2021/05/23 10:40:28;;;;;;;;;;;;;;;27.82;33.59;98922.97;1732114;82;20222;-88
2021/05/23 10:42:59;;;;;;;;;;;;;;;27.94;32.04;98923.10;1740954;81;20099;-87
2021/05/23 10:45:34;;;;;;;;;;;;;;;27.99;32.28;98919.45;1746181;82;20213;-86
2021/05/23 10:48:12;;;;;;;;;;;;;;;27.86;32.10;98917.16;1737343;82;20141;-87
2021/05/23 10:50:39;;;;;;;;;;;;;;;28.06;37.21;98926.37;1727873;82;20200;-87
2021/05/23 10:53:06;;;;;;;;;;;;;;;27.94;32.11;98916.42;1724546;82;20192;-87
2021/05/23 10:55:34;;;;;;;;;;;;;;;28.13;36.72;98912.25;1732403;82;20197;-85
2021/05/23 10:58:01;;;;;;;;;;;;;;;27.95;32.47;98904.25;1734655;82;20162;-86
2021/05/23 11:00:33;;;;;;;;;;;;;;;27.84;32.45;98909.80;1717643;84;20182;-88
2021/05/23 11:03:10;;;;;;;;;;;;;;;27.86;32.70;98903.80;1739123;82;20181;-87
2021/05/23 11:05:37;;;;;;;;;;;;;;;27.91;30.37;98898.02;1728687;82;20207;-86
2021/05/23 11:08:05;;;;;;;;;;;;;;;28.00;32.60;98898.95;1718104;84;20186;-87
2021/05/23 11:10:44;;;;;;;;;;;;;;;27.91;30.75;98895.34;1717982;84;20147;-87
2021/05/23 11:13:14;;;;;;;;;;;;;;;27.88;34.24;98890.33;1712070;82;20194;-88
2021/05/23 11:15:46;;;;;;;;;;;;;;;27.89;32.89;98892.82;1709916;84;20121;-88
2021/05/23 11:18:21;;;;;;;;;;;;;;;27.80;32.93;98890.23;1739007;82;20150;-88
2021/05/23 11:20:58;;;;;;;;;;;;;;;27.66;30.98;98879.09;1751997;82;20165;-86
2021/05/23 11:23:25;;;;;;;;;;;;;;;27.47;30.16;98884.06;1750901;82;20210;-86
2021/05/23 11:26:12;;;;;;;;;;;;;;;27.56;30.59;98875.66;1736520;82;20164;-87
2021/05/23 11:28:39;;;;;;;;;;;;;;;27.72;31.98;98872.30;1738336;82;20689;-87
2021/05/23 11:31:06;;;;;;;;;;;;;;;27.94;31.56;98866.50;1741962;83;20254;-86
2021/05/23 11:33:32;;;;;;;;;;;;;;;27.80;29.32;98868.86;1728256;83;20226;-83
2021/05/23 11:35:58;;;;;;;;;;;;;;;28.06;30.24;98869.77;1737194;82;20218;-85
2021/05/23 11:38:37;;;;;;;;;;;;;;;27.99;28.87;98863.86;1719172;82;20129;-87
2021/05/23 11:41:05;;;;;;;;;;;;;;;28.14;28.83;98864.98;1712847;83;20188;-87
2021/05/23 11:43:32;;;;;;;;;;;;;;;28.39;31.42;98858.44;1729975;83;20146;-88
2021/05/23 11:46:01;;;;;;;;;;;;;;;28.43;30.43;98853.11;1740425;77;20098;-88
2021/05/23 11:48:33;;;;;;;;;;;;;;;28.57;31.20;98845.89;1738593;77;20131;-87
2021/05/23 11:51:00;;;;;;;;;;;;;;;28.82;30.54;98841.46;1733125;77;20145;-86
2021/05/23 11:53:39;;;;;;;;;;;;;;;29.27;30.46;98832.77;1697150;84;20160;-87
2021/05/23 11:56:06;;;;;;;;;;;;;;;29.53;28.21;98829.44;1738663;82;20536;-88
2021/05/23 11:58:33;;;;;;;;;;;;;;;29.91;30.11;98819.08;1742479;83;20166;-87
2021/05/23 12:01:32;;;;;;;;;;;;;;;30.09;30.61;98810.84;1735342;83;20181;-88
2021/05/23 12:04:08;;;;;;;;;;;;;;;29.80;28.95;98807.36;1733532;83;20189;-88
2021/05/23 12:06:37;;;;;;;;;;;;;;;29.91;28.11;98805.68;1733895;83;20102;-87
2021/05/23 12:09:09;;;;;;;;;;;;;;;29.97;26.42;98802.83;1742256;80;20162;-86
2021/05/23 12:11:49;;;;;;;;;;;;;;;30.19;25.50;98804.47;1731437;76;20140;-88
2021/05/23 12:14:22;;;;;;;;;;;;;;;30.36;28.50;98792.69;1712632;83;20157;-89
2021/05/23 12:17:04;;;;;;;;;;;;;;;30.33;26.41;98785.02;1703625;81;20113;-88
2021/05/23 12:19:45;;;;;;;;;;;;;;;30.29;26.28;98784.48;1676378;81;20135;-89
2021/05/23 12:22:04;;;;;;;;;;;;;;;30.54;26.09;98777.73;1708495;83;20189;-87
2021/05/23 12:24:31;;;;;;;;;;;;;;;30.72;27.01;98775.63;1743295;82;20238;-87
2021/05/23 12:26:57;;;;;;;;;;;;;;;30.76;26.83;98768.06;1725173;82;20115;-87
2021/05/23 12:29:27;;;;;;;;;;;;;;;31.27;26.86;98760.88;1708406;83;20211;-87
2021/05/23 12:31:53;;;;;;;;;;;;;;;32.07;24.47;98752.80;1742772;79;20147;-90
2021/05/23 12:34:20;;;;;;;;;;;;;;;32.91;24.14;98749.75;1740703;79;20166;-88
2021/05/23 12:36:46;;;;;;;;;;;;;;;33.73;27.12;98744.42;1740135;79;20193;-87
2021/05/23 12:42:15;;;;;;;;;;;;;;;34.72;20.43;98745.18;1727334;79;20174;-87
2021/05/23 12:44:42;;;;;;;;;;;;;;;35.28;20.20;98735.47;1731261;81;20181;-88
2021/05/23 12:47:29;;;;;;;;;;;;;;;35.99;19.96;98736.66;1734865;81;20189;-90
2021/05/23 12:53:01;;;;;;;;;;;;;;;37.07;18.37;98723.00;1727325;81;20220;-89
2021/05/23 12:55:29;;;;;;;;;;;;;;;37.61;18.28;98714.28;1739623;82;20205;-90
2021/05/23 12:57:57;;;;;;;;;;;;;;;37.87;17.62;98708.28;1736585;81;20173;-89
2021/05/23 13:00:24;;;;;;;;;;;;;;;38.06;17.80;98715.92;1719295;82;20211;-87